Little Valley, Nevada Weather observations

Data are for 10 minute period ending at time listed.
 Day   Time    Ave.   Ave.  Ave.  Vector   Max.   Total    Solar   
  of    of     Air    Rel.  Wind   Wind    Wind  Precip.   Rad.    
Year   Day     Temp.  Hum.  Speed  Dir.    Gust                    
2015   (PST)    F      %     mph   deg.    mph     in.     W/m2    
------------------------------------------------------------------- 
  31    3:00   27.0    90    3.0   101      8.0    0.27       0  
  31    4:00   25.0    92    0.0   182      7.0    0.27       0  
  31    5:00   23.0    94    0.0   281      2.0    0.27       0  
  31    6:00   21.0    92    1.0   114      5.0    0.27       0  
  31    7:00   19.0    93    2.0   188      3.0    0.27       0  
  31    8:00   18.0    91    1.0   146      3.0    0.27       5  
  31    9:00   22.0    91    1.0   138      4.0    0.27      32  
  31   10:00   35.0    57    2.0   120      6.0    0.28     353  
  31   11:00   39.0    44    3.0    80      6.0    0.28     504  
  31   12:00   41.0    36    3.0    62      8.0    0.28     610  
  31   13:00   44.0    27    4.0    72      8.0    0.28     650  
  31   14:00   45.0    25    4.0    61     13.0    0.28     620  
  31   15:00   46.0    20    3.0    76     10.0    0.28     529  
  31   16:00   46.0    18    3.0    70      8.0    0.28     375  
  31   17:00   30.0    50    0.0   194      5.0    0.28      61  
  31   18:00   26.0    63    0.0   221      2.0    0.28       7  
  31   19:00   25.0    69    0.0   205      3.0    0.28       0  
  31   20:00   24.0    73    0.0    78      2.0    0.28       0  
  31   21:00   22.0    75    0.0   206      2.0    0.28       0  
  31   22:00   21.0    78    0.0    23      2.0    0.28       0  
  31   23:00   20.0    80    0.0   187      1.0    0.28       0  
  32    0:00   19.0    82    0.0   262      2.0    0.28       0  
  32    1:00   18.0    84    0.0   229      2.0    0.28       0  
  32    2:00   17.0    85    0.0   193      1.0    0.28       0  

Return to Little Valley, Nevada graphs page.


Western Regional Climate Center,wrcc@dri.edu